Messick, Indiana
Current Conditions -  °F | °C
As of 5:53 PM on Thursday 23 Oct 2014 (Local Time) from KMIE Reporting Station
Clear Clear  
Wind Chill: 57°   Ceiling: Unl
Heat Index: 57°   Visibility: 10mi
Dew Point: 40°   Wind: 5mph
Humidity: 53%   Direction: 260°W
Pressure: 30.14"   Gusts: NA
Location:  39.9231°N, 85.3444°W
Report Text: KMIE 232153Z 26004KT 10SM CLR 14/04 A3014 RMK AO2 SLP206 T01390044
Loading
Personal Weather Stations






























Interactive Weather Map
Tropical Storm Tracking
New forecast layout! Learn more

10-Day Weather Forecast

Advertisements
Track Severe Weather on mobile